Time;durP1;ratioP1;P1;durP2;ratioP2;P2;SDS_P1;SDS_P2;PMS_P1;PMS_P2;Temp;Humidity;BMP_temperature;BMP_pressure;BME280_temperature;BME280_humidity;BME280_pressure;Samples;Min_cycle;Max_cycle;Signal;HPM_P1;HPM_P2
2023/10/07 00:03:05;;;;;;;7.10;4.53;;;19.50;77.80;;;;;;10829110;33;20025;-75
2023/10/07 00:09:10;;;;;;;7.05;4.57;;;19.40;77.50;;;;;;10826300;33;20059;-75
2023/10/07 00:15:13;;;;;;;6.55;4.00;;;19.30;77.60;;;;;;10816823;33;20378;-74
2023/10/07 00:21:23;;;;;;;6.53;4.18;;;19.20;77.60;;;;;;10828613;33;20028;-75
2023/10/07 00:27:31;;;;;;;7.80;5.07;;;19.20;77.70;;;;;;10814987;33;20402;-74
2023/10/07 00:39:53;;;;;;;8.48;4.65;;;19.10;77.70;;;;;;10827047;33;20052;-74
2023/10/07 00:46:10;;;;;;;7.15;4.25;;;19.10;77.60;;;;;;10827981;33;20051;-74
2023/10/07 00:52:24;;;;;;;7.57;4.65;;;19.10;77.90;;;;;;10826537;33;20024;-74
2023/10/07 00:58:28;;;;;;;7.07;4.30;;;19.10;78.00;;;;;;10826969;33;20058;-75
2023/10/07 01:04:40;;;;;;;8.38;3.95;;;19.10;77.90;;;;;;10826978;33;20038;-75
2023/10/07 01:10:54;;;;;;;5.78;4.32;;;19.00;78.00;;;;;;10826813;33;20020;-74
2023/10/07 01:16:56;;;;;;;6.70;4.55;;;18.90;78.20;;;;;;10814422;33;20028;-74
2023/10/07 01:23:04;;;;;;;7.35;4.90;;;18.80;78.20;;;;;;10827170;32;20051;-75
2023/10/07 01:29:15;;;;;;;5.82;3.67;;;18.80;78.20;;;;;;10825796;33;20465;-74
2023/10/07 01:35:26;;;;;;;5.97;4.47;;;18.80;78.20;;;;;;10826276;33;20055;-74
2023/10/07 01:41:28;;;;;;;7.20;4.82;;;18.80;78.60;;;;;;10827382;33;20091;-74
2023/10/07 01:47:30;;;;;;;6.22;4.53;;;18.80;78.50;;;;;;10845306;32;20026;-74
2023/10/07 01:53:32;;;;;;;5.80;4.12;;;18.70;78.40;;;;;;10981081;32;20018;-74
2023/10/07 01:59:36;;;;;;;7.05;4.75;;;18.70;78.40;;;;;;10966707;32;20425;-74
2023/10/07 02:05:40;;;;;;;7.80;5.03;;;18.70;78.20;;;;;;10980182;32;20038;-74
2023/10/07 02:11:43;;;;;;;7.65;4.82;;;18.50;78.20;;;;;;10981014;32;20349;-74
2023/10/07 02:17:47;;;;;;;5.25;2.95;;;18.50;78.20;;;;;;10980093;32;20053;-74
2023/10/07 02:23:49;;;;;;;5.97;4.37;;;18.40;78.40;;;;;;10981140;32;20438;-74
2023/10/07 02:29:52;;;;;;;6.30;4.60;;;18.40;78.50;;;;;;10981091;32;20524;-74
2023/10/07 02:35:56;;;;;;;5.87;4.45;;;18.40;78.40;;;;;;10979032;32;20057;-74
2023/10/07 02:41:58;;;;;;;6.75;4.07;;;18.30;78.40;;;;;;10980793;32;20472;-74
2023/10/07 02:48:03;;;;;;;4.75;3.33;;;18.20;78.50;;;;;;10947853;32;20059;-74
2023/10/07 02:54:20;;;;;;;8.70;3.87;;;18.10;78.60;;;;;;10824423;33;20060;-74
2023/10/07 03:00:38;;;;;;;5.07;3.72;;;18.10;78.70;;;;;;10824767;33;20055;-74
2023/10/07 03:06:46;;;;;;;4.37;3.28;;;17.90;78.70;;;;;;10823419;33;20043;-74
2023/10/07 03:12:56;;;;;;;8.23;3.90;;;17.90;78.90;;;;;;10823452;33;20052;-74
2023/10/07 03:25:06;;;;;;;7.50;4.62;;;17.80;78.90;;;;;;10822786;33;20020;-74
2023/10/07 03:31:10;;;;;;;6.30;4.65;;;17.80;79.00;;;;;;10822784;33;20043;-74
2023/10/07 03:43:16;;;;;;;5.22;3.45;;;17.70;78.90;;;;;;10824043;32;20038;-74
2023/10/07 03:49:21;;;;;;;5.12;3.70;;;17.70;78.90;;;;;;10828403;33;20021;-74
2023/10/07 03:55:23;;;;;;;6.35;4.53;;;17.80;78.70;;;;;;10828954;33;20327;-74
2023/10/07 04:01:27;;;;;;;6.70;4.62;;;17.80;78.60;;;;;;10827352;33;20016;-74
2023/10/07 04:07:30;;;;;;;5.72;4.00;;;17.80;78.60;;;;;;10827536;33;20016;-74
2023/10/07 04:13:33;;;;;;;7.30;4.32;;;17.80;78.70;;;;;;10827808;33;20020;-74
2023/10/07 04:19:53;;;;;;;5.50;4.10;;;17.70;78.90;;;;;;10824287;33;20086;-74
2023/10/07 04:25:56;;;;;;;5.25;4.07;;;17.60;78.90;;;;;;10815150;32;20028;-74
2023/10/07 04:32:20;;;;;;;6.62;3.70;;;17.60;78.90;;;;;;10828015;33;20398;-74
2023/10/07 04:51:02;;;;;;;5.70;3.30;;;17.30;79.10;;;;;;10827398;33;20398;-74
2023/10/07 04:57:10;;;;;;;8.05;4.45;;;17.30;79.10;;;;;;10813951;32;20024;-74
2023/10/07 05:03:14;;;;;;;5.00;3.58;;;17.30;79.20;;;;;;10827980;33;20013;-74
2023/10/07 05:09:21;;;;;;;6.20;4.12;;;17.40;79.20;;;;;;10828303;33;20009;-74
2023/10/07 05:15:25;;;;;;;6.60;4.03;;;17.30;79.30;;;;;;10827107;33;20012;-74
2023/10/07 05:21:27;;;;;;;6.07;4.47;;;17.40;79.30;;;;;;10827100;33;20015;-74
2023/10/07 05:27:30;;;;;;;4.57;3.50;;;17.30;79.40;;;;;;10827544;33;20016;-74
2023/10/07 05:33:34;;;;;;;5.97;4.53;;;17.30;79.40;;;;;;10826570;33;20043;-74
2023/10/07 05:39:36;;;;;;;5.75;4.20;;;17.30;79.40;;;;;;10826449;33;20016;-74
2023/10/07 05:45:40;;;;;;;6.62;4.12;;;17.20;79.30;;;;;;10825693;33;20051;-74
2023/10/07 05:51:44;;;;;;;5.97;3.17;;;17.20;79.50;;;;;;10826162;33;20016;-74
2023/10/07 05:57:47;;;;;;;4.75;3.62;;;17.20;79.70;;;;;;10827125;33;20028;-74
2023/10/07 06:03:51;;;;;;;12.25;5.30;;;17.30;79.60;;;;;;10827008;33;20039;-75
2023/10/07 06:09:54;;;;;;;8.85;4.40;;;17.30;79.50;;;;;;10825728;32;20338;-74
2023/10/07 06:15:59;;;;;;;6.90;4.20;;;17.40;79.50;;;;;;10824461;33;20035;-75
2023/10/07 06:22:10;;;;;;;6.45;3.92;;;17.40;79.50;;;;;;10826036;33;20024;-75
2023/10/07 06:28:18;;;;;;;9.00;4.80;;;17.50;79.50;;;;;;10825846;33;20382;-75
2023/10/07 06:34:25;;;;;;;7.50;4.05;;;17.60;79.50;;;;;;10825059;33;20008;-75
2023/10/07 06:40:48;;;;;;;7.43;3.93;;;17.70;79.50;;;;;;10814574;33;20016;-74
2023/10/07 06:46:56;;;;;;;8.60;4.87;;;17.70;79.50;;;;;;10830443;27;20050;-75
2023/10/07 06:52:59;;;;;;;5.30;3.47;;;17.80;79.60;;;;;;10937892;32;20066;-74
2023/10/07 06:59:03;;;;;;;7.45;4.45;;;17.80;79.60;;;;;;10942327;32;20409;-75
2023/10/07 07:05:11;;;;;;;4.93;3.75;;;17.90;79.70;;;;;;10942677;32;20015;-74
2023/10/07 07:11:16;;;;;;;4.43;2.90;;;18.00;79.60;;;;;;10941247;32;20037;-75
2023/10/07 07:17:29;;;;;;;5.03;3.00;;;18.10;79.60;;;;;;10941160;32;20058;-75
2023/10/07 07:23:40;;;;;;;12.95;3.60;;;18.20;79.40;;;;;;10948919;32;20401;-74
2023/10/07 07:29:45;;;;;;;4.55;2.92;;;18.30;79.10;;;;;;10946859;32;20038;-74
2023/10/07 07:35:51;;;;;;;9.90;3.50;;;18.40;78.80;;;;;;10945924;32;20027;-74
2023/10/07 07:41:55;;;;;;;3.90;2.10;;;18.50;78.50;;;;;;10934813;32;20341;-74
2023/10/07 07:47:58;;;;;;;5.60;3.35;;;18.70;78.60;;;;;;10947717;32;20022;-75
2023/10/07 07:54:01;;;;;;;4.97;3.20;;;18.80;78.50;;;;;;10924270;32;20035;-74
2023/10/07 08:00:09;;;;;;;0.90;0.80;;;18.90;78.40;;;;;;10910183;32;20427;-74
2023/10/07 08:06:19;;;;;;;6.62;3.67;;;19.00;78.10;;;;;;10896228;32;20027;-75
2023/10/07 08:12:28;;;;;;;;;;;19.10;77.90;;;;;;10910875;32;20024;-75
2023/10/07 08:18:34;;;;;;;7.30;3.87;;;19.20;77.80;;;;;;10883708;32;19926;-74
2023/10/07 08:24:39;;;;;;;7.53;4.75;;;19.30;77.60;;;;;;10908888;32;20020;-75
2023/10/07 08:30:46;;;;;;;6.07;3.55;;;19.30;77.20;;;;;;10894145;32;20062;-74
2023/10/07 08:36:49;;;;;;;5.15;3.22;;;19.40;76.90;;;;;;10908429;32;20348;-74
2023/10/07 08:42:58;;;;;;;7.25;4.10;;;19.50;76.50;;;;;;10908842;32;20099;-74
2023/10/07 08:49:06;;;;;;;7.45;4.05;;;19.70;76.30;;;;;;10854997;32;20335;-75
2023/10/07 08:55:09;;;;;;;11.52;3.92;;;19.80;75.90;;;;;;10755393;33;20051;-74
2023/10/07 09:01:17;;;;;;;5.68;3.30;;;19.80;75.40;;;;;;10753683;33;20029;-75
2023/10/07 09:07:20;;;;;;;6.27;3.37;;;20.00;75.00;;;;;;10754137;33;20060;-75
2023/10/07 09:13:31;;;;;;;5.62;3.35;;;20.10;74.60;;;;;;10755144;33;20039;-74
2023/10/07 09:19:34;;;;;;;6.87;3.72;;;20.20;74.40;;;;;;10740275;33;20054;-74
2023/10/07 09:25:36;;;;;;;6.90;3.05;;;20.30;73.90;;;;;;10754164;33;20395;-75
2023/10/07 09:31:39;;;;;;;4.78;3.20;;;20.40;73.50;;;;;;10750994;33;20315;-75
2023/10/07 09:37:42;;;;;;;6.15;3.83;;;20.60;73.20;;;;;;10752632;33;20032;-75
2023/10/07 09:43:48;;;;;;;5.45;2.87;;;20.80;72.80;;;;;;10739735;33;20327;-74
2023/10/07 09:49:51;;;;;;;5.65;3.00;;;21.00;72.10;;;;;;10752545;33;20021;-74
2023/10/07 09:56:21;;;;;;;5.70;3.60;;;21.10;71.50;;;;;;10738788;32;20338;-75
2023/10/07 10:03:12;;;;;;;5.30;3.15;;;21.30;71.10;;;;;;10752353;33;20013;-74
2023/10/07 10:09:23;;;;;;;7.80;3.30;;;21.30;70.30;;;;;;10819916;32;20050;-74
2023/10/07 10:21:46;;;;;;;4.75;3.33;;;21.70;70.10;;;;;;10826727;32;20027;-75
2023/10/07 10:27:48;;;;;;;9.40;4.40;;;21.80;69.70;;;;;;10825891;32;20225;-75
2023/10/07 10:33:52;;;;;;;7.05;3.28;;;22.00;69.30;;;;;;10825841;32;20042;-75
2023/10/07 10:39:54;;;;;;;6.05;3.70;;;22.20;69.20;;;;;;10812728;32;20024;-74
2023/10/07 10:46:05;;;;;;;9.68;4.60;;;22.40;68.70;;;;;;10758573;32;20017;-74
2023/10/07 10:52:08;;;;;;;12.20;6.00;;;22.60;68.10;;;;;;10751357;33;20067;-74
2023/10/07 10:58:19;;;;;;;6.95;4.70;;;22.80;67.20;;;;;;10757392;33;20020;-74
2023/10/07 11:04:36;;;;;;;8.32;5.15;;;23.10;66.60;;;;;;10757878;33;20061;-74
2023/10/07 11:10:39;;;;;;;7.03;4.77;;;23.40;66.00;;;;;;10753165;33;20056;-74
2023/10/07 11:16:46;;;;;;;12.52;6.43;;;23.60;65.50;;;;;;10752610;33;20422;-74
2023/10/07 11:22:50;;;;;;;12.63;8.52;;;23.80;64.80;;;;;;10752469;33;20021;-74
2023/10/07 11:28:55;;;;;;;9.10;6.00;;;24.10;64.30;;;;;;10752129;33;20048;-74
2023/10/07 11:34:59;;;;;;;13.38;7.00;;;24.20;64.00;;;;;;10752047;33;20395;-74
2023/10/07 11:41:04;;;;;;;17.20;12.80;;;24.30;63.80;;;;;;10752364;33;20059;-74
2023/10/07 11:47:11;;;;;;;11.30;7.07;;;24.30;62.80;;;;;;10766947;32;20051;-74
2023/10/07 11:53:13;;;;;;;23.40;16.45;;;24.30;63.10;;;;;;10985256;32;20015;-74
2023/10/07 11:59:15;;;;;;;12.25;8.48;;;24.30;63.20;;;;;;10972251;32;20069;-74
2023/10/07 12:05:17;;;;;;;16.52;10.65;;;24.20;63.00;;;;;;10984405;32;20023;-74
2023/10/07 12:11:22;;;;;;;11.23;7.47;;;24.30;62.70;;;;;;10985761;32;20068;-74
2023/10/07 12:17:24;;;;;;;13.98;10.63;;;24.30;62.60;;;;;;10984846;32;20019;-74
2023/10/07 12:23:27;;;;;;;14.65;10.43;;;24.20;62.70;;;;;;10983117;32;20022;-74
2023/10/07 12:29:29;;;;;;;17.42;11.45;;;24.20;62.50;;;;;;10983501;32;20068;-75
2023/10/07 12:35:34;;;;;;;16.95;11.57;;;24.10;62.20;;;;;;10971134;32;20015;-75
2023/10/07 12:41:37;;;;;;;15.63;10.40;;;24.10;62.60;;;;;;10969565;32;20057;-74
2023/10/07 12:47:43;;;;;;;16.23;11.48;;;24.20;62.60;;;;;;10969513;32;20375;-75
2023/10/07 12:53:45;;;;;;;15.18;10.27;;;24.20;62.10;;;;;;10981336;32;20049;-73
2023/10/07 12:59:52;;;;;;;20.08;14.90;;;24.20;61.80;;;;;;10966604;32;20027;-74
2023/10/07 13:05:54;;;;;;;12.85;9.90;;;24.20;61.30;;;;;;10939013;32;20023;-74
2023/10/07 13:11:58;;;;;;;16.50;9.95;;;24.30;61.70;;;;;;10937348;32;20057;-73
2023/10/07 13:18:03;;;;;;;15.10;9.82;;;24.30;61.70;;;;;;10925049;32;20349;-74
2023/10/07 13:24:07;;;;;;;13.30;8.82;;;24.30;61.70;;;;;;10939437;32;20027;-74
2023/10/07 13:30:12;;;;;;;13.23;8.45;;;24.40;61.60;;;;;;10940014;32;20047;-74
2023/10/07 13:36:14;;;;;;;12.60;9.27;;;24.50;61.50;;;;;;10939830;32;20031;-74
2023/10/07 13:42:16;;;;;;;22.85;11.50;;;24.60;61.20;;;;;;10939829;32;20349;-72
2023/10/07 13:48:18;;;;;;;11.48;7.40;;;24.60;61.00;;;;;;10930591;32;20048;-74
2023/10/07 14:00:45;;;;;;;13.23;8.10;;;24.70;61.10;;;;;;10826043;33;20402;-75
2023/10/07 14:06:47;;;;;;;15.18;9.40;;;24.80;61.10;;;;;;10825360;33;20012;-74
2023/10/07 14:12:50;;;;;;;18.62;9.65;;;24.80;61.00;;;;;;10824994;33;20086;-75
2023/10/07 14:18:53;;;;;;;11.00;8.55;;;24.90;61.00;;;;;;10825258;33;20024;-74
2023/10/07 14:24:55;;;;;;;26.35;13.98;;;24.90;60.90;;;;;;10825369;33;20062;-74
2023/10/07 14:30:57;;;;;;;11.65;6.93;;;25.00;60.60;;;;;;10812250;33;20424;-75
2023/10/07 14:37:00;;;;;;;10.77;8.18;;;25.00;60.70;;;;;;10824200;33;20102;-75
2023/10/07 14:43:04;;;;;;;13.18;7.43;;;25.00;60.80;;;;;;10825021;33;20024;-76
2023/10/07 14:49:06;;;;;;;11.77;8.17;;;25.10;61.10;;;;;;10642171;27;7999254;-75
2023/10/07 14:55:10;;;;;;;13.93;9.18;;;25.10;61.40;;;;;;10965704;32;20019;-75
2023/10/07 15:01:13;;;;;;;12.18;8.80;;;25.00;61.50;;;;;;10964264;32;20049;-75
2023/10/07 15:07:16;;;;;;;16.50;10.82;;;25.00;61.70;;;;;;10964580;32;20034;-75
2023/10/07 15:13:20;;;;;;;10.70;6.57;;;25.00;61.90;;;;;;10986759;32;20054;-75
2023/10/07 15:19:22;;;;;;;9.43;7.12;;;24.90;62.10;;;;;;10978016;32;20469;-75
2023/10/07 15:25:24;;;;;;;9.48;6.47;;;25.00;62.20;;;;;;10977705;32;20011;-76
2023/10/07 15:31:27;;;;;;;10.10;6.72;;;25.10;62.10;;;;;;10963765;32;20411;-75
2023/10/07 15:37:30;;;;;;;9.63;6.72;;;25.70;61.60;;;;;;10977738;32;20022;-75
2023/10/07 15:43:32;;;;;;;10.13;7.20;;;26.00;61.00;;;;;;10957877;32;20034;-75
2023/10/07 15:49:39;;;;;;;17.17;6.68;;;26.20;60.90;;;;;;10875740;32;20016;-75
2023/10/07 15:55:41;;;;;;;7.32;5.15;;;26.30;60.70;;;;;;10789541;33;20029;-75
2023/10/07 16:01:43;;;;;;;9.25;5.87;;;26.20;61.00;;;;;;10788168;33;20051;-75
2023/10/07 16:07:45;;;;;;;14.57;5.00;;;26.00;61.20;;;;;;10788454;33;20051;-75
2023/10/07 16:13:47;;;;;;;9.90;6.22;;;25.30;62.40;;;;;;10791913;33;20028;-75
2023/10/07 16:19:49;;;;;;;8.63;6.00;;;24.60;63.60;;;;;;10813422;33;20063;-75
2023/10/07 16:25:52;;;;;;;9.13;5.57;;;24.10;64.40;;;;;;10828202;33;20008;-76
2023/10/07 16:31:54;;;;;;;7.60;4.93;;;23.80;64.90;;;;;;10826580;33;20338;-75
2023/10/07 16:37:57;;;;;;;13.18;6.57;;;23.60;65.20;;;;;;10827596;33;20024;-75
2023/10/07 16:43:59;;;;;;;10.57;4.87;;;23.40;65.50;;;;;;10827819;33;20046;-75
2023/10/07 16:50:01;;;;;;;5.72;4.22;;;23.30;65.70;;;;;;10827469;32;20015;-75
2023/10/07 16:56:06;;;;;;;7.57;4.30;;;23.20;66.00;;;;;;10827516;33;20041;-75
2023/10/07 17:02:08;;;;;;;7.72;5.15;;;23.00;66.30;;;;;;10829082;33;20046;-75
2023/10/07 17:08:21;;;;;;;9.07;4.62;;;22.90;66.60;;;;;;10813711;33;20070;-75
2023/10/07 17:14:23;;;;;;;8.57;4.35;;;22.80;66.70;;;;;;10801445;33;20031;-75
2023/10/07 17:20:25;;;;;;;7.30;4.47;;;22.70;67.00;;;;;;10814181;32;20066;-75
2023/10/07 17:26:27;;;;;;;8.73;4.35;;;22.60;67.20;;;;;;10827695;33;20028;-75
2023/10/07 17:32:30;;;;;;;6.60;3.90;;;22.50;67.50;;;;;;10800554;33;20098;-75
2023/10/07 17:38:33;;;;;;;6.93;3.90;;;22.40;67.90;;;;;;10809798;33;20345;-75
2023/10/07 17:44:35;;;;;;;6.05;3.50;;;22.30;67.90;;;;;;10825965;33;20299;-75
2023/10/07 17:50:40;;;;;;;8.55;4.60;;;22.30;67.90;;;;;;10825482;33;20020;-75
2023/10/07 17:56:43;;;;;;;6.30;4.32;;;22.30;68.00;;;;;;10821899;33;20055;-75
2023/10/07 18:02:46;;;;;;;9.10;4.25;;;22.20;68.10;;;;;;10819814;33;20051;-75
2023/10/07 18:08:48;;;;;;;5.95;3.37;;;22.10;68.40;;;;;;10821633;33;20027;-76
2023/10/07 18:14:55;;;;;;;5.80;3.70;;;22.10;68.60;;;;;;10819929;33;20463;-76
2023/10/07 18:21:05;;;;;;;8.93;4.45;;;22.00;68.90;;;;;;10821004;33;20032;-76
2023/10/07 18:27:08;;;;;;;6.00;3.65;;;21.90;69.50;;;;;;10820728;33;20024;-76
2023/10/07 18:33:13;;;;;;;8.10;4.65;;;21.80;69.50;;;;;;10821078;33;20028;-76
2023/10/07 18:39:15;;;;;;;8.63;4.22;;;21.80;69.80;;;;;;10820277;33;20047;-76
2023/10/07 18:45:17;;;;;;;8.25;4.87;;;21.80;70.20;;;;;;10820493;33;20020;-76
2023/10/07 18:51:20;;;;;;;9.18;4.85;;;21.70;70.10;;;;;;10820054;33;20055;-76
2023/10/07 18:57:22;;;;;;;6.82;4.95;;;21.70;70.50;;;;;;10805972;33;20023;-76
2023/10/07 19:03:46;;;;;;;6.43;4.12;;;21.70;70.60;;;;;;10787627;33;20017;-76
2023/10/07 19:10:00;;;;;;;7.53;4.82;;;21.60;70.70;;;;;;10788289;33;20315;-76
2023/10/07 19:16:04;;;;;;;8.10;2.97;;;21.50;70.90;;;;;;10787880;33;20062;-76
2023/10/07 19:22:06;;;;;;;21.33;6.35;;;21.40;71.20;;;;;;10793550;33;20012;-76
2023/10/07 19:28:09;;;;;;;8.63;5.80;;;21.40;71.60;;;;;;10793609;33;20043;-76
2023/10/07 19:34:12;;;;;;;9.15;3.97;;;21.40;71.40;;;;;;10793100;33;20058;-76
2023/10/07 19:40:14;;;;;;;9.25;5.82;;;21.30;71.40;;;;;;10792992;33;20016;-76
2023/10/07 19:46:16;;;;;;;8.32;5.22;;;21.20;71.40;;;;;;10793821;33;20047;-76
2023/10/07 19:52:18;;;;;;;8.30;5.68;;;21.20;71.50;;;;;;10811861;33;20032;-76
2023/10/07 19:58:21;;;;;;;11.95;5.10;;;21.30;71.50;;;;;;10823858;33;20056;-76
2023/10/07 20:04:23;;;;;;;9.77;6.85;;;21.20;71.50;;;;;;10825010;33;20047;-76
2023/10/07 20:10:27;;;;;;;10.10;7.00;;;21.20;71.50;;;;;;10801446;33;20047;-76
2023/10/07 20:16:29;;;;;;;7.75;4.80;;;21.20;71.70;;;;;;10792069;33;20009;-76
2023/10/07 20:22:33;;;;;;;10.13;5.47;;;21.20;72.10;;;;;;10793040;33;20413;-75
2023/10/07 20:28:38;;;;;;;7.85;5.45;;;21.00;73.10;;;;;;10791128;33;20402;-75
2023/10/07 20:34:58;;;;;;;9.05;6.93;;;20.90;73.70;;;;;;10778636;33;20008;-75
2023/10/07 20:41:03;;;;;;;7.20;4.07;;;20.80;74.40;;;;;;10792806;33;20460;-75
2023/10/07 20:47:13;;;;;;;7.82;5.22;;;20.80;74.40;;;;;;10790208;33;20016;-75
2023/10/07 20:53:15;;;;;;;9.23;5.00;;;20.80;74.50;;;;;;10778573;32;20029;-75
2023/10/07 20:59:18;;;;;;;6.95;5.68;;;20.70;74.60;;;;;;10791353;33;20424;-75
2023/10/07 21:05:26;;;;;;;8.93;6.12;;;20.70;75.00;;;;;;10790691;33;20052;-75
2023/10/07 21:11:41;;;;;;;6.95;5.28;;;20.60;75.10;;;;;;10786339;33;20043;-75
2023/10/07 21:17:44;;;;;;;6.47;5.43;;;20.70;75.10;;;;;;10840660;32;20032;-75
2023/10/07 21:23:47;;;;;;;11.77;7.72;;;20.70;75.20;;;;;;10790523;33;20350;-75
2023/10/07 21:29:53;;;;;;;10.60;7.57;;;20.60;75.20;;;;;;10790623;33;20409;-75
2023/10/07 21:35:58;;;;;;;12.65;8.23;;;20.60;75.40;;;;;;10790176;33;20394;-75
2023/10/07 21:42:04;;;;;;;8.40;6.60;;;20.60;75.30;;;;;;10790235;33;20020;-75
2023/10/07 21:48:09;;;;;;;12.80;10.60;;;20.60;75.20;;;;;;10806802;32;20031;-75
2023/10/07 21:54:11;;;;;;;11.25;8.50;;;20.50;75.10;;;;;;10943913;32;20042;-75
2023/10/07 22:06:28;;;;;;;9.40;7.32;;;20.50;75.20;;;;;;10929121;32;20297;-75
2023/10/07 22:12:31;;;;;;;13.70;9.55;;;20.40;75.50;;;;;;10943563;32;20330;-75
2023/10/07 22:18:33;;;;;;;8.73;6.18;;;20.40;75.90;;;;;;10943155;32;20038;-75
2023/10/07 22:24:35;;;;;;;12.35;9.18;;;20.30;76.10;;;;;;10929546;32;20023;-75
2023/10/07 22:30:45;;;;;;;10.63;9.00;;;20.30;76.30;;;;;;10943491;32;20378;-75
2023/10/07 22:36:54;;;;;;;9.20;7.75;;;20.30;76.10;;;;;;10941783;32;20019;-75
2023/10/07 22:43:10;;;;;;;;;;;20.30;76.00;;;;;;10943381;32;20037;-75
2023/10/07 22:49:13;;;;;;;11.98;7.80;;;20.20;76.10;;;;;;10900215;27;19959;-75
2023/10/07 22:55:25;;;;;;;14.98;10.57;;;20.20;76.10;;;;;;10824382;33;20020;-75
2023/10/07 23:07:48;;;;;;;10.57;8.35;;;20.20;76.20;;;;;;10824690;33;20318;-75
2023/10/07 23:14:04;;;;;;;12.80;9.82;;;20.10;76.30;;;;;;10825149;33;20047;-75
2023/10/07 23:20:24;;;;;;;12.57;8.38;;;20.10;76.60;;;;;;10823850;33;20035;-75
2023/10/07 23:26:30;;;;;;;11.27;8.68;;;20.10;76.80;;;;;;10822155;33;20034;-75
2023/10/07 23:32:43;;;;;;;11.60;9.23;;;20.00;76.70;;;;;;10824078;33;20039;-75
2023/10/07 23:38:49;;;;;;;10.40;8.50;;;19.90;76.70;;;;;;10823257;33;20020;-75
2023/10/07 23:44:55;;;;;;;14.68;9.20;;;19.90;76.70;;;;;;10824410;33;20043;-75
2023/10/07 23:50:57;;;;;;;10.38;7.70;;;19.80;76.80;;;;;;10823077;32;20078;-75
2023/10/07 23:57:00;;;;;;;11.73;8.73;;;19.80;76.90;;;;;;10822705;33;20016;-75
